sensor_id;sensor_type;location;lat;lon;timestamp;pressure;altitude;pressure_sealevel;temperature;humidity
41515;BME280;27247;48.020;16.720;2023-03-31T00:03:26;99515.94;;;9.19;90.21
41515;BME280;27247;48.020;16.720;2023-03-31T00:07:37;99523.41;;;9.24;89.80
41515;BME280;27247;48.020;16.720;2023-03-31T00:11:48;99521.25;;;9.19;90.17
41515;BME280;27247;48.020;16.720;2023-03-31T00:16:07;99519.25;;;9.21;89.38
41515;BME280;27247;48.020;16.720;2023-03-31T00:20:18;99519.78;;;9.17;89.42
41515;BME280;27247;48.020;16.720;2023-03-31T00:24:28;99519.13;;;9.15;89.42
41515;BME280;27247;48.020;16.720;2023-03-31T00:28:42;99518.16;;;9.08;89.78
41515;BME280;27247;48.020;16.720;2023-03-31T00:32:52;99521.81;;;9.07;89.71
41515;BME280;27247;48.020;16.720;2023-03-31T00:37:03;99520.38;;;8.96;90.45
41515;BME280;27247;48.020;16.720;2023-03-31T00:41:14;99530.56;;;8.84;90.68
41515;BME280;27247;48.020;16.720;2023-03-31T00:45:28;99509.84;;;8.63;91.09
41515;BME280;27247;48.020;16.720;2023-03-31T00:49:41;99515.00;;;8.57;90.67
41515;BME280;27247;48.020;16.720;2023-03-31T00:54:00;99499.22;;;8.47;91.24
41515;BME280;27247;48.020;16.720;2023-03-31T00:58:14;99481.06;;;8.51;92.01
41515;BME280;27247;48.020;16.720;2023-03-31T01:02:29;99474.09;;;8.50;92.67
41515;BME280;27247;48.020;16.720;2023-03-31T01:06:46;99486.22;;;8.52;93.10
41515;BME280;27247;48.020;16.720;2023-03-31T01:11:03;99491.59;;;7.55;88.45
41515;BME280;27247;48.020;16.720;2023-03-31T01:15:16;99484.78;;;7.52;91.13
41515;BME280;27247;48.020;16.720;2023-03-31T01:33:09;99462.34;;;7.55;96.47
41515;BME280;27247;48.020;16.720;2023-03-31T01:37:51;99462.34;;;7.63;96.83
41515;BME280;27247;48.020;16.720;2023-03-31T01:46:37;99473.66;;;7.73;97.17
41515;BME280;27247;48.020;16.720;2023-03-31T01:50:55;99461.84;;;7.84;97.92
41515;BME280;27247;48.020;16.720;2023-03-31T01:55:56;99457.81;;;8.12;97.39
41515;BME280;27247;48.020;16.720;2023-03-31T01:59:51;99451.78;;;8.26;95.91
41515;BME280;27247;48.020;16.720;2023-03-31T02:04:45;99449.19;;;8.35;95.80
41515;BME280;27247;48.020;16.720;2023-03-31T02:09:02;99445.66;;;8.26;94.23
41515;BME280;27247;48.020;16.720;2023-03-31T02:13:15;99445.81;;;8.24;94.81
41515;BME280;27247;48.020;16.720;2023-03-31T02:17:28;99430.53;;;8.18;95.13
41515;BME280;27247;48.020;16.720;2023-03-31T02:21:42;99429.84;;;8.24;95.26
41515;BME280;27247;48.020;16.720;2023-03-31T02:26:17;99420.56;;;8.12;95.34
41515;BME280;27247;48.020;16.720;2023-03-31T02:30:37;99421.44;;;7.96;94.85
41515;BME280;27247;48.020;16.720;2023-03-31T02:34:54;99418.28;;;7.85;94.59
41515;BME280;27247;48.020;16.720;2023-03-31T02:39:07;99425.13;;;7.63;93.44
41515;BME280;27247;48.020;16.720;2023-03-31T02:43:20;99420.13;;;7.35;92.50
41515;BME280;27247;48.020;16.720;2023-03-31T02:47:30;99424.09;;;7.23;92.95
41515;BME280;27247;48.020;16.720;2023-03-31T03:01:10;99408.97;;;7.16;95.49
41515;BME280;27247;48.020;16.720;2023-03-31T03:14:46;99406.16;;;6.51;95.12
41515;BME280;27247;48.020;16.720;2023-03-31T03:19:02;99399.94;;;6.34;96.12
41515;BME280;27247;48.020;16.720;2023-03-31T03:23:14;99396.09;;;6.28;97.52
41515;BME280;27247;48.020;16.720;2023-03-31T03:27:24;99391.47;;;6.30;98.15
41515;BME280;27247;48.020;16.720;2023-03-31T03:31:35;99389.75;;;6.21;97.56
41515;BME280;27247;48.020;16.720;2023-03-31T03:35:45;99399.31;;;6.14;97.91
41515;BME280;27247;48.020;16.720;2023-03-31T03:39:56;99388.78;;;5.96;96.20
41515;BME280;27247;48.020;16.720;2023-03-31T03:44:06;99387.78;;;5.71;94.11
41515;BME280;27247;48.020;16.720;2023-03-31T03:48:17;99382.09;;;5.66;95.06
41515;BME280;27247;48.020;16.720;2023-03-31T03:52:28;99369.09;;;5.55;93.80
41515;BME280;27247;48.020;16.720;2023-03-31T03:56:38;99374.97;;;5.41;93.44
41515;BME280;27247;48.020;16.720;2023-03-31T04:00:48;99368.25;;;5.29;92.21
41515;BME280;27247;48.020;16.720;2023-03-31T04:04:59;99367.88;;;5.24;92.51
41515;BME280;27247;48.020;16.720;2023-03-31T04:09:09;99369.53;;;5.25;93.30
41515;BME280;27247;48.020;16.720;2023-03-31T04:13:20;99372.25;;;5.15;93.90
41515;BME280;27247;48.020;16.720;2023-03-31T04:17:30;99363.47;;;5.14;95.73
41515;BME280;27247;48.020;16.720;2023-03-31T04:21:45;99365.13;;;5.33;97.66
41515;BME280;27247;48.020;16.720;2023-03-31T04:25:59;99359.69;;;5.35;100.00
41515;BME280;27247;48.020;16.720;2023-03-31T04:30:13;99352.72;;;5.34;100.00
41515;BME280;27247;48.020;16.720;2023-03-31T04:34:31;99356.16;;;5.26;100.00
41515;BME280;27247;48.020;16.720;2023-03-31T04:38:49;99353.25;;;5.02;100.00
41515;BME280;27247;48.020;16.720;2023-03-31T04:43:00;99349.25;;;4.98;100.00
41515;BME280;27247;48.020;16.720;2023-03-31T04:47:10;99338.34;;;5.01;100.00
41515;BME280;27247;48.020;16.720;2023-03-31T04:51:21;99333.22;;;4.99;100.00
41515;BME280;27247;48.020;16.720;2023-03-31T04:55:32;99325.19;;;5.09;100.00
41515;BME280;27247;48.020;16.720;2023-03-31T04:59:43;99321.25;;;5.13;100.00
41515;BME280;27247;48.020;16.720;2023-03-31T05:03:53;99308.16;;;5.11;100.00
41515;BME280;27247;48.020;16.720;2023-03-31T05:08:03;99303.31;;;5.07;100.00
41515;BME280;27247;48.020;16.720;2023-03-31T05:12:14;99278.13;;;5.21;99.67
41515;BME280;27247;48.020;16.720;2023-03-31T05:16:24;99286.13;;;5.11;99.27
41515;BME280;27247;48.020;16.720;2023-03-31T05:20:35;99285.03;;;4.96;100.00
41515;BME280;27247;48.020;16.720;2023-03-31T05:24:46;99290.84;;;4.99;100.00
41515;BME280;27247;48.020;16.720;2023-03-31T05:28:56;99282.97;;;5.07;100.00
41515;BME280;27247;48.020;16.720;2023-03-31T05:33:06;99290.09;;;5.07;100.00
41515;BME280;27247;48.020;16.720;2023-03-31T05:37:18;99294.19;;;5.01;100.00
41515;BME280;27247;48.020;16.720;2023-03-31T05:41:29;99293.91;;;4.87;100.00
41515;BME280;27247;48.020;16.720;2023-03-31T05:45:39;99287.69;;;4.96;100.00
41515;BME280;27247;48.020;16.720;2023-03-31T05:49:50;99284.00;;;5.14;100.00
41515;BME280;27247;48.020;16.720;2023-03-31T05:54:01;99279.25;;;5.18;100.00
41515;BME280;27247;48.020;16.720;2023-03-31T05:58:11;99277.50;;;5.27;100.00
41515;BME280;27247;48.020;16.720;2023-03-31T06:02:22;99265.03;;;5.45;100.00
41515;BME280;27247;48.020;16.720;2023-03-31T06:06:32;99253.56;;;5.70;100.00
41515;BME280;27247;48.020;16.720;2023-03-31T06:10:43;99250.72;;;5.98;100.00
41515;BME280;27247;48.020;16.720;2023-03-31T06:14:54;99245.69;;;6.29;100.00
41515;BME280;27247;48.020;16.720;2023-03-31T06:19:06;99234.47;;;6.59;100.00
41515;BME280;27247;48.020;16.720;2023-03-31T06:23:16;99219.34;;;6.84;100.00
41515;BME280;27247;48.020;16.720;2023-03-31T06:27:26;99219.31;;;7.17;100.00
41515;BME280;27247;48.020;16.720;2023-03-31T06:31:37;99224.09;;;7.46;100.00
41515;BME280;27247;48.020;16.720;2023-03-31T06:35:47;99213.16;;;7.80;100.00
41515;BME280;27247;48.020;16.720;2023-03-31T06:39:57;99211.09;;;8.21;100.00
41515;BME280;27247;48.020;16.720;2023-03-31T06:44:08;99211.34;;;8.65;100.00
41515;BME280;27247;48.020;16.720;2023-03-31T06:48:18;99202.09;;;9.13;100.00
41515;BME280;27247;48.020;16.720;2023-03-31T06:52:30;99197.44;;;9.59;99.51
41515;BME280;27247;48.020;16.720;2023-03-31T06:56:40;99199.06;;;9.90;97.11
41515;BME280;27247;48.020;16.720;2023-03-31T07:00:51;99198.84;;;10.21;96.70
41515;BME280;27247;48.020;16.720;2023-03-31T07:05:02;99193.72;;;10.41;95.64
41515;BME280;27247;48.020;16.720;2023-03-31T07:09:12;99185.34;;;10.65;94.90
41515;BME280;27247;48.020;16.720;2023-03-31T07:13:23;99179.38;;;10.91;93.53
41515;BME280;27247;48.020;16.720;2023-03-31T07:17:34;99172.22;;;11.26;91.54
41515;BME280;27247;48.020;16.720;2023-03-31T07:21:46;99152.94;;;11.72;89.17
41515;BME280;27247;48.020;16.720;2023-03-31T07:25:56;99153.91;;;12.12;86.40
41515;BME280;27247;48.020;16.720;2023-03-31T07:30:14;99146.97;;;12.37;84.86
41515;BME280;27247;48.020;16.720;2023-03-31T07:34:25;99136.09;;;12.65;83.07
41515;BME280;27247;48.020;16.720;2023-03-31T07:38:36;99135.03;;;12.99;82.93
41515;BME280;27247;48.020;16.720;2023-03-31T07:42:49;99116.84;;;13.28;81.99
41515;BME280;27247;48.020;16.720;2023-03-31T07:47:01;99103.97;;;13.50;78.06
41515;BME280;27247;48.020;16.720;2023-03-31T07:51:19;99097.69;;;13.76;77.01
41515;BME280;27247;48.020;16.720;2023-03-31T07:55:29;99094.28;;;13.93;77.37
41515;BME280;27247;48.020;16.720;2023-03-31T07:59:40;99092.78;;;14.04;77.78
41515;BME280;27247;48.020;16.720;2023-03-31T08:03:51;99086.88;;;14.20;79.21
41515;BME280;27247;48.020;16.720;2023-03-31T08:08:04;99079.16;;;14.30;79.09
41515;BME280;27247;48.020;16.720;2023-03-31T08:12:15;99074.75;;;14.43;81.00
41515;BME280;27247;48.020;16.720;2023-03-31T08:16:25;99061.19;;;14.56;78.31
41515;BME280;27247;48.020;16.720;2023-03-31T08:20:36;99062.81;;;14.63;81.07
41515;BME280;27247;48.020;16.720;2023-03-31T08:24:48;99043.06;;;14.94;78.72
41515;BME280;27247;48.020;16.720;2023-03-31T08:28:58;99042.69;;;15.27;76.03
41515;BME280;27247;48.020;16.720;2023-03-31T08:33:09;99034.22;;;15.42;74.13
41515;BME280;27247;48.020;16.720;2023-03-31T08:37:21;99027.53;;;15.81;69.91
41515;BME280;27247;48.020;16.720;2023-03-31T08:46:04;99006.44;;;15.78;67.63
41515;BME280;27247;48.020;16.720;2023-03-31T08:50:21;98995.66;;;15.78;70.13
41515;BME280;27247;48.020;16.720;2023-03-31T08:54:37;99001.28;;;15.77;68.26
41515;BME280;27247;48.020;16.720;2023-03-31T08:58:49;98993.06;;;15.72;66.27
41515;BME280;27247;48.020;16.720;2023-03-31T09:03:03;98991.31;;;15.77;67.06
41515;BME280;27247;48.020;16.720;2023-03-31T09:07:24;98974.34;;;15.77;64.59
41515;BME280;27247;48.020;16.720;2023-03-31T09:11:55;98969.81;;;15.59;63.07
41515;BME280;27247;48.020;16.720;2023-03-31T09:20:49;98961.66;;;14.37;73.43
41515;BME280;27247;48.020;16.720;2023-03-31T09:25:09;98961.97;;;14.04;76.05
41515;BME280;27247;48.020;16.720;2023-03-31T09:33:43;98957.16;;;13.50;74.07
41515;BME280;27247;48.020;16.720;2023-03-31T09:37:54;98959.03;;;13.50;73.10
41515;BME280;27247;48.020;16.720;2023-03-31T09:42:05;98953.22;;;13.59;72.33
41515;BME280;27247;48.020;16.720;2023-03-31T09:46:49;98944.19;;;13.79;70.53
41515;BME280;27247;48.020;16.720;2023-03-31T09:51:04;98937.41;;;14.01;70.66
41515;BME280;27247;48.020;16.720;2023-03-31T09:55:22;98916.69;;;14.26;70.62
41515;BME280;27247;48.020;16.720;2023-03-31T09:59:34;98908.72;;;14.38;71.29
41515;BME280;27247;48.020;16.720;2023-03-31T10:03:53;98897.59;;;14.59;76.43
41515;BME280;27247;48.020;16.720;2023-03-31T10:12:28;98888.00;;;14.82;76.48
41515;BME280;27247;48.020;16.720;2023-03-31T10:16:57;98870.69;;;14.78;73.39
41515;BME280;27247;48.020;16.720;2023-03-31T10:21:23;98860.97;;;14.77;71.70
41515;BME280;27247;48.020;16.720;2023-03-31T10:25:34;98859.56;;;14.74;69.28
41515;BME280;27247;48.020;16.720;2023-03-31T10:29:45;98851.63;;;14.79;71.41
41515;BME280;27247;48.020;16.720;2023-03-31T10:33:56;98838.50;;;15.01;72.72
41515;BME280;27247;48.020;16.720;2023-03-31T10:38:11;98832.06;;;15.02;71.77
41515;BME280;27247;48.020;16.720;2023-03-31T10:42:24;98831.84;;;15.04;72.94
41515;BME280;27247;48.020;16.720;2023-03-31T10:50:50;98824.91;;;15.38;67.34
41515;BME280;27247;48.020;16.720;2023-03-31T10:55:00;98814.88;;;15.56;68.03
41515;BME280;27247;48.020;16.720;2023-03-31T11:03:44;98799.16;;;15.53;68.68
41515;BME280;27247;48.020;16.720;2023-03-31T11:08:12;98800.56;;;15.44;67.32
41515;BME280;27247;48.020;16.720;2023-03-31T11:12:33;98823.84;;;15.39;66.59
41515;BME280;27247;48.020;16.720;2023-03-31T11:29:57;98818.81;;;15.42;63.74
41515;BME280;27247;48.020;16.720;2023-03-31T11:34:38;98819.66;;;15.43;66.31
41515;BME280;27247;48.020;16.720;2023-03-31T11:39:02;98798.81;;;15.50;66.85
41515;BME280;27247;48.020;16.720;2023-03-31T11:47:41;98781.34;;;15.29;68.76
41515;BME280;27247;48.020;16.720;2023-03-31T11:52:26;98747.28;;;15.23;69.48
41515;BME280;27247;48.020;16.720;2023-03-31T11:56:39;98708.78;;;15.22;70.37
41515;BME280;27247;48.020;16.720;2023-03-31T12:00:55;98681.28;;;15.20;69.92
41515;BME280;27247;48.020;16.720;2023-03-31T12:05:09;98687.72;;;15.31;69.98
41515;BME280;27247;48.020;16.720;2023-03-31T12:09:31;98682.66;;;15.93;67.96
41515;BME280;27247;48.020;16.720;2023-03-31T12:17:58;98663.81;;;16.50;67.05
41515;BME280;27247;48.020;16.720;2023-03-31T12:22:13;98660.84;;;16.51;66.82
41515;BME280;27247;48.020;16.720;2023-03-31T12:30:46;98645.47;;;16.07;66.16
41515;BME280;27247;48.020;16.720;2023-03-31T12:39:38;98624.97;;;15.42;66.99
41515;BME280;27247;48.020;16.720;2023-03-31T13:01:18;98598.56;;;15.16;68.51
41515;BME280;27247;48.020;16.720;2023-03-31T13:09:48;98596.66;;;15.40;68.49
41515;BME280;27247;48.020;16.720;2023-03-31T13:14:27;98572.66;;;15.61;68.56
41515;BME280;27247;48.020;16.720;2023-03-31T13:18:49;98564.53;;;16.02;68.15
41515;BME280;27247;48.020;16.720;2023-03-31T13:23:20;98562.94;;;16.34;67.35
41515;BME280;27247;48.020;16.720;2023-03-31T13:27:32;98561.22;;;16.73;67.17
41515;BME280;27247;48.020;16.720;2023-03-31T13:53:56;98493.81;;;18.84;57.90
41515;BME280;27247;48.020;16.720;2023-03-31T14:07:33;98467.06;;;17.86;60.28
41515;BME280;27247;48.020;16.720;2023-03-31T14:11:46;98464.19;;;17.49;61.28
41515;BME280;27247;48.020;16.720;2023-03-31T14:15:58;98454.75;;;17.24;61.71
41515;BME280;27247;48.020;16.720;2023-03-31T14:25:45;98462.03;;;16.80;63.16
41515;BME280;27247;48.020;16.720;2023-03-31T14:29:45;98450.34;;;16.75;63.59
41515;BME280;27247;48.020;16.720;2023-03-31T14:38:23;98462.22;;;16.74;63.56
41515;BME280;27247;48.020;16.720;2023-03-31T14:42:38;98458.75;;;16.78;63.14
41515;BME280;27247;48.020;16.720;2023-03-31T14:46:49;98448.66;;;16.69;63.37
41515;BME280;27247;48.020;16.720;2023-03-31T14:51:02;98449.38;;;16.47;64.79
41515;BME280;27247;48.020;16.720;2023-03-31T14:55:14;98450.94;;;16.26;65.92
41515;BME280;27247;48.020;16.720;2023-03-31T14:59:29;98459.84;;;16.10;66.25
41515;BME280;27247;48.020;16.720;2023-03-31T15:03:40;98462.38;;;16.00;66.31
41515;BME280;27247;48.020;16.720;2023-03-31T15:07:56;98465.56;;;15.97;66.35
41515;BME280;27247;48.020;16.720;2023-03-31T15:12:11;98458.06;;;15.99;66.33
41515;BME280;27247;48.020;16.720;2023-03-31T15:16:42;98465.56;;;16.14;65.69
41515;BME280;27247;48.020;16.720;2023-03-31T15:20:53;98472.44;;;16.21;65.29
41515;BME280;27247;48.020;16.720;2023-03-31T15:25:04;98468.50;;;16.12;65.61
41515;BME280;27247;48.020;16.720;2023-03-31T15:29:40;98497.50;;;16.22;67.21
41515;BME280;27247;48.020;16.720;2023-03-31T15:33:51;98519.16;;;16.10;63.88
41515;BME280;27247;48.020;16.720;2023-03-31T15:38:04;98530.19;;;15.80;56.00
41515;BME280;27247;48.020;16.720;2023-03-31T15:42:15;98544.56;;;15.57;60.45
41515;BME280;27247;48.020;16.720;2023-03-31T15:46:49;98577.88;;;14.93;65.25
41515;BME280;27247;48.020;16.720;2023-03-31T15:59:51;98623.41;;;13.01;77.39
41515;BME280;27247;48.020;16.720;2023-03-31T16:04:07;98619.00;;;12.64;79.96
41515;BME280;27247;48.020;16.720;2023-03-31T16:12:41;98585.25;;;12.25;82.83
41515;BME280;27247;48.020;16.720;2023-03-31T16:17:09;98564.25;;;12.22;82.31
41515;BME280;27247;48.020;16.720;2023-03-31T16:21:25;98572.78;;;12.12;83.77
41515;BME280;27247;48.020;16.720;2023-03-31T16:25:39;98581.00;;;11.79;83.13
41515;BME280;27247;48.020;16.720;2023-03-31T16:30:04;98569.28;;;11.80;83.17
41515;BME280;27247;48.020;16.720;2023-03-31T16:34:16;98534.19;;;11.50;82.41
41515;BME280;27247;48.020;16.720;2023-03-31T16:38:27;98488.81;;;11.30;81.61
41515;BME280;27247;48.020;16.720;2023-03-31T16:42:38;98512.06;;;11.30;83.49
41515;BME280;27247;48.020;16.720;2023-03-31T16:46:49;98518.78;;;11.45;83.28
41515;BME280;27247;48.020;16.720;2023-03-31T16:51:00;98543.66;;;11.52;85.17
41515;BME280;27247;48.020;16.720;2023-03-31T16:55:10;98491.19;;;11.51;84.68
41515;BME280;27247;48.020;16.720;2023-03-31T16:59:21;98471.00;;;11.56;80.27
41515;BME280;27247;48.020;16.720;2023-03-31T17:03:33;98476.56;;;11.54;79.85
41515;BME280;27247;48.020;16.720;2023-03-31T17:07:45;98456.38;;;11.58;80.46
41515;BME280;27247;48.020;16.720;2023-03-31T17:11:55;98465.47;;;11.50;80.87
41515;BME280;27247;48.020;16.720;2023-03-31T17:16:07;98455.22;;;11.41;78.36
41515;BME280;27247;48.020;16.720;2023-03-31T17:20:19;98457.97;;;11.28;79.93
41515;BME280;27247;48.020;16.720;2023-03-31T17:24:30;98462.91;;;11.24;79.36
41515;BME280;27247;48.020;16.720;2023-03-31T17:28:41;98473.78;;;11.29;77.89
41515;BME280;27247;48.020;16.720;2023-03-31T17:32:52;98488.19;;;11.28;77.15
41515;BME280;27247;48.020;16.720;2023-03-31T17:37:02;98485.09;;;11.31;75.75
41515;BME280;27247;48.020;16.720;2023-03-31T17:41:14;98492.09;;;11.32;78.08
41515;BME280;27247;48.020;16.720;2023-03-31T17:45:27;98489.66;;;11.24;77.85
41515;BME280;27247;48.020;16.720;2023-03-31T17:49:38;98493.16;;;11.25;76.60
41515;BME280;27247;48.020;16.720;2023-03-31T17:53:49;98502.09;;;11.43;74.55
41515;BME280;27247;48.020;16.720;2023-03-31T17:58:00;98498.81;;;11.41;75.02
41515;BME280;27247;48.020;16.720;2023-03-31T18:02:11;98511.22;;;11.29;75.76
41515;BME280;27247;48.020;16.720;2023-03-31T18:06:22;98511.66;;;11.26;77.29
41515;BME280;27247;48.020;16.720;2023-03-31T18:10:34;98518.22;;;11.30;75.12
41515;BME280;27247;48.020;16.720;2023-03-31T18:14:44;98519.84;;;11.31;75.50
41515;BME280;27247;48.020;16.720;2023-03-31T18:18:55;98517.38;;;11.36;75.15
41515;BME280;27247;48.020;16.720;2023-03-31T18:23:06;98523.09;;;11.46;74.30
41515;BME280;27247;48.020;16.720;2023-03-31T18:27:17;98524.34;;;11.37;74.54
41515;BME280;27247;48.020;16.720;2023-03-31T18:31:28;98517.38;;;11.36;75.02
41515;BME280;27247;48.020;16.720;2023-03-31T18:35:39;98533.81;;;11.40;74.18
41515;BME280;27247;48.020;16.720;2023-03-31T18:39:52;98534.19;;;11.50;74.36
41515;BME280;27247;48.020;16.720;2023-03-31T18:44:03;98537.09;;;11.48;73.41
41515;BME280;27247;48.020;16.720;2023-03-31T18:48:15;98541.59;;;11.55;72.70
41515;BME280;27247;48.020;16.720;2023-03-31T18:52:29;98546.13;;;11.54;73.16
41515;BME280;27247;48.020;16.720;2023-03-31T18:56:41;98546.13;;;11.54;73.30
41515;BME280;27247;48.020;16.720;2023-03-31T19:00:51;98539.47;;;11.63;72.12
41515;BME280;27247;48.020;16.720;2023-03-31T19:05:02;98554.75;;;11.56;73.59
41515;BME280;27247;48.020;16.720;2023-03-31T19:09:14;98543.22;;;11.56;72.90
41515;BME280;27247;48.020;16.720;2023-03-31T19:13:25;98544.88;;;11.57;72.70
41515;BME280;27247;48.020;16.720;2023-03-31T19:17:36;98548.56;;;11.56;73.34
41515;BME280;27247;48.020;16.720;2023-03-31T19:21:47;98547.56;;;11.50;75.00
41515;BME280;27247;48.020;16.720;2023-03-31T19:25:59;98548.56;;;11.56;75.80
41515;BME280;27247;48.020;16.720;2023-03-31T19:30:20;98549.44;;;11.49;75.17
41515;BME280;27247;48.020;16.720;2023-03-31T19:34:32;98538.94;;;11.41;76.47
41515;BME280;27247;48.020;16.720;2023-03-31T19:38:43;98550.28;;;11.37;76.45
41515;BME280;27247;48.020;16.720;2023-03-31T19:42:54;98544.56;;;11.27;76.86
41515;BME280;27247;48.020;16.720;2023-03-31T19:47:05;98543.09;;;11.31;76.52
41515;BME280;27247;48.020;16.720;2023-03-31T19:51:17;98552.78;;;11.25;76.90
41515;BME280;27247;48.020;16.720;2023-03-31T19:55:28;98552.41;;;11.22;77.65
41515;BME280;27247;48.020;16.720;2023-03-31T19:59:39;98553.91;;;11.04;78.14
41515;BME280;27247;48.020;16.720;2023-03-31T20:03:50;98564.00;;;10.96;78.81
41515;BME280;27247;48.020;16.720;2023-03-31T20:08:02;98567.31;;;10.84;80.99
41515;BME280;27247;48.020;16.720;2023-03-31T20:12:15;98575.94;;;10.93;81.52
41515;BME280;27247;48.020;16.720;2023-03-31T20:16:27;98575.97;;;10.73;82.31
41515;BME280;27247;48.020;16.720;2023-03-31T20:20:38;98575.56;;;10.50;82.66
41515;BME280;27247;48.020;16.720;2023-03-31T20:24:50;98577.19;;;10.31;84.11
41515;BME280;27247;48.020;16.720;2023-03-31T20:29:01;98577.34;;;10.16;85.29
41515;BME280;27247;48.020;16.720;2023-03-31T20:33:13;98563.78;;;9.98;86.53
41515;BME280;27247;48.020;16.720;2023-03-31T20:37:23;98572.00;;;10.10;86.73
41515;BME280;27247;48.020;16.720;2023-03-31T20:41:35;98574.25;;;10.06;87.03
41515;BME280;27247;48.020;16.720;2023-03-31T20:45:56;98579.16;;;9.96;87.70
41515;BME280;27247;48.020;16.720;2023-03-31T20:50:12;98564.59;;;9.92;88.31
41515;BME280;27247;48.020;16.720;2023-03-31T20:54:22;98573.03;;;10.02;87.92
41515;BME280;27247;48.020;16.720;2023-03-31T20:58:33;98569.94;;;9.99;87.69
41515;BME280;27247;48.020;16.720;2023-03-31T21:02:44;98562.56;;;10.07;87.05
41515;BME280;27247;48.020;16.720;2023-03-31T21:06:54;98567.47;;;10.10;86.99
41515;BME280;27247;48.020;16.720;2023-03-31T21:11:05;98546.53;;;10.07;86.83
41515;BME280;27247;48.020;16.720;2023-03-31T21:15:15;98549.81;;;10.03;86.27
41515;BME280;27247;48.020;16.720;2023-03-31T21:19:26;98536.06;;;9.99;85.50
41515;BME280;27247;48.020;16.720;2023-03-31T21:23:36;98532.34;;;9.93;84.96
41515;BME280;27247;48.020;16.720;2023-03-31T21:27:47;98519.03;;;9.93;84.71
41515;BME280;27247;48.020;16.720;2023-03-31T21:31:57;98522.50;;;9.94;83.33
41515;BME280;27247;48.020;16.720;2023-03-31T21:36:11;98527.41;;;9.77;85.57
41515;BME280;27247;48.020;16.720;2023-03-31T21:40:22;98532.53;;;9.72;86.14
41515;BME280;27247;48.020;16.720;2023-03-31T21:44:32;98533.13;;;9.61;86.82
41515;BME280;27247;48.020;16.720;2023-03-31T21:48:43;98529.44;;;9.62;86.95
41515;BME280;27247;48.020;16.720;2023-03-31T21:52:54;98521.63;;;9.60;87.02
41515;BME280;27247;48.020;16.720;2023-03-31T21:57:04;98517.16;;;9.74;85.46
41515;BME280;27247;48.020;16.720;2023-03-31T22:01:16;98514.88;;;9.71;85.23
41515;BME280;27247;48.020;16.720;2023-03-31T22:05:30;98513.06;;;9.78;84.14
41515;BME280;27247;48.020;16.720;2023-03-31T22:09:40;98499.09;;;9.70;83.49
41515;BME280;27247;48.020;16.720;2023-03-31T22:13:50;98505.03;;;9.78;83.30
41515;BME280;27247;48.020;16.720;2023-03-31T22:18:01;98505.66;;;9.74;82.92
41515;BME280;27247;48.020;16.720;2023-03-31T22:22:11;98510.78;;;9.69;82.78
41515;BME280;27247;48.020;16.720;2023-03-31T22:26:22;98507.28;;;9.62;82.66
41515;BME280;27247;48.020;16.720;2023-03-31T22:30:32;98502.53;;;9.44;83.31
41515;BME280;27247;48.020;16.720;2023-03-31T22:34:43;98502.50;;;9.37;84.16
41515;BME280;27247;48.020;16.720;2023-03-31T22:38:53;98498.34;;;9.35;83.66
41515;BME280;27247;48.020;16.720;2023-03-31T22:43:03;98499.34;;;9.20;84.14
41515;BME280;27247;48.020;16.720;2023-03-31T22:47:14;98501.59;;;9.23;84.27
41515;BME280;27247;48.020;16.720;2023-03-31T22:51:25;98497.69;;;9.19;83.51
41515;BME280;27247;48.020;16.720;2023-03-31T22:55:43;98511.63;;;9.21;83.36
41515;BME280;27247;48.020;16.720;2023-03-31T22:59:54;98506.03;;;9.51;81.54
41515;BME280;27247;48.020;16.720;2023-03-31T23:04:04;98493.75;;;9.63;80.54
41515;BME280;27247;48.020;16.720;2023-03-31T23:08:15;98500.13;;;9.82;79.87
41515;BME280;27247;48.020;16.720;2023-03-31T23:12:27;98490.06;;;9.77;80.20
41515;BME280;27247;48.020;16.720;2023-03-31T23:16:37;98498.91;;;9.84;79.89
41515;BME280;27247;48.020;16.720;2023-03-31T23:20:48;98487.81;;;9.94;78.44
41515;BME280;27247;48.020;16.720;2023-03-31T23:24:58;98489.06;;;9.98;77.74
41515;BME280;27247;48.020;16.720;2023-03-31T23:29:08;98496.44;;;10.03;77.49
41515;BME280;27247;48.020;16.720;2023-03-31T23:33:19;98493.78;;;10.09;76.55
41515;BME280;27247;48.020;16.720;2023-03-31T23:37:29;98494.81;;;10.08;77.29
41515;BME280;27247;48.020;16.720;2023-03-31T23:41:39;98491.09;;;9.96;78.25
41515;BME280;27247;48.020;16.720;2023-03-31T23:45:51;98499.94;;;9.90;78.54
41515;BME280;27247;48.020;16.720;2023-03-31T23:50:01;98507.94;;;9.83;78.29
41515;BME280;27247;48.020;16.720;2023-03-31T23:54:12;98498.06;;;9.77;78.68
41515;BME280;27247;48.020;16.720;2023-03-31T23:58:23;98504.00;;;9.73;79.36
